Tampa, FL

2:56 PM EDT on September 04, 2015 (GMT -0400)
Pat Acre Estates (CodeChaser) | | Change Station
CLOSE
Current Station
Personal Weather Station
Location: Tampa, FL
Elevation: 21 ft
Nearby Weather Stations

Elev 21 ft 28.02 °N, 82.56 °W | Updated 9 minutes ago

Mostly Cloudy
Mostly Cloudy
87.4 °F
Feels Like 102 °F
N
1.7
Wind Variable Wind from West

Today
High -- | Low -- °F
--% Chance of Precip.
Yesterday
High -- | Low -- °F
Precip. -- in
7:10 AM 7:47 PM
Waning Gibbous, 57% visible
Pressure 29.96 in
Visibility 10.0 miles
Clouds Scattered Clouds 3000 ft
Mostly Cloudy 6500 ft
Mostly Cloudy 23000 ft
Heat Index 102 °F
Dew Point 79 °F
Humidity 77%
Rainfall 0.00 in
Snow Depth Not available.
UV 7 out of 12
Pollen 4.30 out of 12
Air Quality Not available.
Flu Activity Not available.
METAR KTPA 041853Z 27006KT 10SM SCT030TCU BKN065 BKN230 31/24 A2996 RMK AO2 RAE1754 SLP143 CB DSNT NE-E AND S TCU SE-S AND NW-N P0000 T03060244
Pressure 29.96 in
Visibility 10.0 miles
Clouds Scattered Clouds 3000 ft
Mostly Cloudy 6500 ft
Mostly Cloudy 23000 ft
Heat Index 102 °F
Dew Point 79 °F
Humidity 77%
Rainfall 0.00 in
Snow Depth Not available.
UV 7 out of 12
Pollen 4.30 out of 12
Air Quality Not available.
Flu Activity Not available.
METAR KTPA 041853Z 27006KT 10SM SCT030TCU BKN065 BKN230 31/24 A2996 RMK AO2 RAE1754 SLP143 CB DSNT NE-E AND S TCU SE-S AND NW-N P0000 T03060244

10-Day Weather Forecast

×

Almanac

Astronomy

Sep. 04, 2015 Rise Set
Actual Time
Civil Twilight
Nautical Twilight
Astronomical Twilight
Moon
Length of Visible Light
Length of Day
Tomorrow will be .
, % of the Moon is Illuminated

Today's Extremes

State Highs State Lows

Community

WunderPhotos

Upload Photos

1,852,262 photos uploaded!

WunderBlogs® & News

Nearby

Air Quality

  Air Quality AQ Index Pollutant
Not available.

Snow Depth

Station Depth Elevation

Earthquake Activity

City Distance Mag. Time & Date
Minimum magnitude displayed is 2.5.

Coastal Water Temperatures

Place Temperature

Stations

Nearby Weather Stations

Station Location Temp. Windchill Dew Point Humidity Wind Precip. Elev Updated Type